ZSSS/SHA METAR and TAF weather

Enter ICAO airport designator
Station Type Date Time Source
ZSSS METAR 2021/06/24 06:00 UTC NOAA

ZSSS 240600Z 16005MPS CAVOK 33/16 Q1008 NOSIG


Station Type Date Time Source
ZSSS Decoded METAR 2021/06/24 06:00 UTC NOAA

Shanghai / Hongqiao, China (ZSSS) 31-10N 121-26E 3M
Jun 24, 2021 - 02:00 AM EDT / 2021.06.24 0600 UTC
Wind: from the SSE (160 degrees) at 11 MPH (10 KT):0
Visibility: greater than 7 mile(s):0
Temperature: 91 F (33 C)
Dew Point: 60 F (16 C)
Relative Humidity: 36%
Pressure (altimeter): 29.77 in. Hg (1008 hPa)
ob: ZSSS 240600Z 16005MPS CAVOK 33/16 Q1008 NOSIG
cycle: 6

Station Type Date Time Source
ZSSS TAF 2021/06/24 06:03 UTC NOAA

TAF ZSSS 240303Z 2406/2506 15004MPS 6000 BKN020 TX32/2406Z TN23/2420Z

Example: see airport list